Clintonville, Kentucky
Current Conditions -  °F | °C
As of 2:35 PM on Saturday 25 Oct 2014 (Local Time) from KIOB Reporting Station
Overcast Overcast  
Wind Chill: 66°   Ceiling: 2100
Heat Index: 66°   Visibility: 7mi
Dew Point: 55°   Wind: 8mph
Humidity: 68%   Direction: 240°WSW
Pressure: 29.99"   Gusts: NA
Location:  38.2067°N, 84.2316°W
Report Text: KIOB 251835Z AUTO 24007KT 220V280 7SM OVC021 19/13 A2999 RMK AO2
Loading
Personal Weather Stations






























Interactive Weather Map
Tropical Storm Tracking
New forecast layout! Learn more

10-Day Weather Forecast

Advertisements
Track Severe Weather on mobile